Time;durP1;ratioP1;P1;durP2;ratioP2;P2;SDS_P1;SDS_P2;PMS_P1;PMS_P2;Temp;Humidity;BMP_temperature;BMP_pressure;BME280_temperature;BME280_humidity;BME280_pressure;Samples;Min_cycle;Max_cycle;Signal;HPM_P1;HPM_P2
2021/12/09 00:01:20;;;;;;;11.60;8.70;;;;;;;;;;5035162;28;20423;-67
2021/12/09 00:03:47;;;;;;;9.43;7.87;;;;;;;;;;5035348;28;20811;-68
2021/12/09 00:06:15;;;;;;;9.73;8.70;;;;;;;;;;5035023;28;20401;-67
2021/12/09 00:08:42;;;;;;;11.40;9.33;;;;;;;;;;5034128;28;20760;-67
2021/12/09 00:11:08;;;;;;;8.70;7.63;;;;;;;;;;5034875;28;20414;-67
2021/12/09 00:13:35;;;;;;;9.93;8.13;;;;;;;;;;5034716;28;20621;-67
2021/12/09 00:16:01;;;;;;;10.57;8.67;;;;;;;;;;5034748;28;20767;-68
2021/12/09 00:18:27;;;;;;;11.37;9.30;;;;;;;;;;5034611;28;20445;-68
2021/12/09 00:20:53;;;;;;;10.60;8.33;;;;;;;;;;5034673;28;20411;-68
2021/12/09 00:23:20;;;;;;;12.93;9.20;;;;;;;;;;5034716;28;20549;-68
2021/12/09 00:25:46;;;;;;;15.17;9.70;;;;;;;;;;5034433;28;20521;-68
2021/12/09 00:28:12;;;;;;;10.33;8.60;;;;;;;;;;5034597;28;20485;-68
2021/12/09 00:30:38;;;;;;;12.47;9.50;;;;;;;;;;5034128;28;20425;-68
2021/12/09 00:33:05;;;;;;;14.43;9.87;;;;;;;;;;5034017;28;20442;-68
2021/12/09 00:35:42;;;;;;;15.20;10.90;;;;;;;;;;5034300;28;20839;-68
2021/12/09 00:38:10;;;;;;;13.10;8.93;;;;;;;;;;5034166;28;20876;-68
2021/12/09 00:40:37;;;;;;;12.87;9.23;;;;;;;;;;5034042;28;20475;-68
2021/12/09 00:43:03;;;;;;;13.60;10.03;;;;;;;;;;5034173;28;20755;-68
2021/12/09 00:45:30;;;;;;;10.57;8.37;;;;;;;;;;5033999;28;20406;-68
2021/12/09 00:47:56;;;;;;;11.27;9.30;;;;;;;;;;5033903;28;20407;-68
2021/12/09 00:50:22;;;;;;;14.20;10.00;;;;;;;;;;5033901;28;20798;-68
2021/12/09 00:52:49;;;;;;;12.60;10.00;;;;;;;;;;5034086;28;21095;-68
2021/12/09 00:55:15;;;;;;;14.40;9.70;;;;;;;;;;5034120;28;20401;-68
2021/12/09 00:57:42;;;;;;;13.13;9.47;;;;;;;;;;5034011;28;20395;-68
2021/12/09 01:00:14;;;;;;;15.07;10.43;;;;;;;;;;5033778;28;20422;-68
2021/12/09 01:02:40;;;;;;;12.33;9.70;;;;;;;;;;5032525;28;20410;-67
2021/12/09 01:05:07;;;;;;;13.03;9.60;;;;;;;;;;5033595;28;20411;-68
2021/12/09 01:07:33;;;;;;;14.30;9.77;;;;;;;;;;5033870;28;20403;-67
2021/12/09 01:09:59;;;;;;;14.27;9.97;;;;;;;;;;5033400;28;20944;-67
2021/12/09 01:12:25;;;;;;;11.63;9.40;;;;;;;;;;5033694;28;20497;-67
2021/12/09 01:14:52;;;;;;;13.83;9.70;;;;;;;;;;5033454;28;20411;-67
2021/12/09 01:17:18;;;;;;;13.73;9.40;;;;;;;;;;5032414;28;20409;-67
2021/12/09 01:19:44;;;;;;;10.90;8.83;;;;;;;;;;5033366;28;20469;-67
2021/12/09 01:22:10;;;;;;;10.73;8.67;;;;;;;;;;5033462;28;20406;-67
2021/12/09 01:24:36;;;;;;;10.30;7.70;;;;;;;;;;5033222;28;20395;-67
2021/12/09 01:27:02;;;;;;;13.17;8.90;;;;;;;;;;5033499;28;20410;-67
2021/12/09 01:29:36;;;;;;;12.93;8.60;;;;;;;;;;5033184;28;20489;-67
2021/12/09 01:32:05;;;;;;;10.70;8.50;;;;;;;;;;5032451;28;20447;-67
2021/12/09 01:34:31;;;;;;;11.47;8.47;;;;;;;;;;5033156;28;20413;-67
2021/12/09 01:36:58;;;;;;;10.70;8.23;;;;;;;;;;5033206;28;20402;-67
2021/12/09 01:39:27;;;;;;;12.30;9.23;;;;;;;;;;5033144;28;20399;-67
2021/12/09 01:41:53;;;;;;;9.17;7.97;;;;;;;;;;5033044;28;20909;-67
2021/12/09 01:44:19;;;;;;;10.20;8.53;;;;;;;;;;5033025;28;20825;-66
2021/12/09 01:46:45;;;;;;;8.83;7.40;;;;;;;;;;5033272;28;20407;-66
2021/12/09 01:49:12;;;;;;;9.10;8.20;;;;;;;;;;5033311;28;20468;-66
2021/12/09 01:51:39;;;;;;;9.40;7.10;;;;;;;;;;5032847;28;21031;-66
2021/12/09 01:54:05;;;;;;;7.20;6.10;;;;;;;;;;5033157;28;20429;-66
2021/12/09 01:56:31;;;;;;;7.07;5.93;;;;;;;;;;5032944;28;20399;-66
2021/12/09 01:58:59;;;;;;;8.03;6.53;;;;;;;;;;5033208;28;20399;-66
2021/12/09 02:01:26;;;;;;;12.70;8.00;;;;;;;;;;5032709;28;20430;-66
2021/12/09 02:03:52;;;;;;;10.30;7.40;;;;;;;;;;5032813;28;20461;-66
2021/12/09 02:06:19;;;;;;;9.73;6.93;;;;;;;;;;5032797;28;20407;-66
2021/12/09 02:08:45;;;;;;;8.93;7.10;;;;;;;;;;5032709;28;20406;-68
2021/12/09 02:11:11;;;;;;;7.70;6.80;;;;;;;;;;5032845;28;20418;-68
2021/12/09 02:13:37;;;;;;;7.83;6.83;;;;;;;;;;5042545;28;20544;-68
2021/12/09 02:16:04;;;;;;;7.80;6.57;;;;;;;;;;5036555;28;20485;-68
2021/12/09 02:18:30;;;;;;;8.70;6.87;;;;;;;;;;5031451;28;20791;-68
2021/12/09 02:21:15;;;;;;;8.97;6.90;;;;;;;;;;5032604;28;20415;-68
2021/12/09 02:23:46;;;;;;;8.80;7.90;;;;;;;;;;5032756;28;20779;-68
2021/12/09 02:26:13;;;;;;;9.17;6.73;;;;;;;;;;5032613;28;20396;-68
2021/12/09 02:28:40;;;;;;;7.73;6.93;;;;;;;;;;5032883;28;20408;-68
2021/12/09 02:31:06;;;;;;;8.77;7.87;;;;;;;;;;5033407;28;20477;-68
2021/12/09 02:33:33;;;;;;;10.43;7.80;;;;;;;;;;5036396;28;20486;-68
2021/12/09 02:35:59;;;;;;;9.33;8.33;;;;;;;;;;5036686;28;20418;-68
2021/12/09 02:38:25;;;;;;;10.70;8.60;;;;;;;;;;5036383;28;20568;-68
2021/12/09 02:40:52;;;;;;;10.13;8.33;;;;;;;;;;5036340;28;20506;-68
2021/12/09 02:43:24;;;;;;;10.80;8.70;;;;;;;;;;5036236;28;20411;-68
2021/12/09 02:45:52;;;;;;;12.00;9.23;;;;;;;;;;5036275;28;20765;-68
2021/12/09 02:48:19;;;;;;;11.07;9.20;;;;;;;;;;5036413;28;20418;-68
2021/12/09 02:50:45;;;;;;;11.93;9.57;;;;;;;;;;5036439;28;20827;-68
2021/12/09 02:53:11;;;;;;;11.40;9.10;;;;;;;;;;5036279;28;20455;-68
2021/12/09 02:55:37;;;;;;;11.83;9.53;;;;;;;;;;5036005;28;20399;-68
2021/12/09 02:58:03;;;;;;;10.83;8.50;;;;;;;;;;5036110;28;20403;-68
2021/12/09 03:00:30;;;;;;;11.60;8.50;;;;;;;;;;5035911;28;20901;-68
2021/12/09 03:02:58;;;;;;;12.00;9.70;;;;;;;;;;5035876;28;20473;-67
2021/12/09 03:05:24;;;;;;;12.33;9.57;;;;;;;;;;5036260;28;20406;-68
2021/12/09 03:07:50;;;;;;;11.80;9.20;;;;;;;;;;5035765;28;20905;-68
2021/12/09 03:10:20;;;;;;;11.70;9.13;;;;;;;;;;5035677;28;20928;-67
2021/12/09 03:12:47;;;;;;;12.03;9.57;;;;;;;;;;5035643;28;20452;-68
2021/12/09 03:15:14;;;;;;;12.80;9.00;;;;;;;;;;5035537;28;20494;-68
2021/12/09 03:17:40;;;;;;;11.80;9.70;;;;;;;;;;5035788;28;20399;-67
2021/12/09 03:20:09;;;;;;;11.67;8.73;;;;;;;;;;5035740;28;20510;-67
2021/12/09 03:22:35;;;;;;;10.30;8.70;;;;;;;;;;5035351;28;20493;-67
2021/12/09 03:25:01;;;;;;;12.10;9.47;;;;;;;;;;5035543;28;20438;-67
2021/12/09 03:27:27;;;;;;;11.30;9.33;;;;;;;;;;5035321;28;20505;-67
2021/12/09 03:29:53;;;;;;;10.30;8.60;;;;;;;;;;5035178;28;20937;-66
2021/12/09 03:32:22;;;;;;;10.67;8.87;;;;;;;;;;5035264;28;20933;-67
2021/12/09 03:34:48;;;;;;;11.53;9.00;;;;;;;;;;5035566;28;20421;-68
2021/12/09 03:37:22;;;;;;;10.03;8.57;;;;;;;;;;5035358;28;20399;-68
2021/12/09 03:39:48;;;;;;;11.37;9.40;;;;;;;;;;5035407;28;20422;-68
2021/12/09 03:42:16;;;;;;;11.20;9.37;;;;;;;;;;5035214;28;20820;-68
2021/12/09 03:44:42;;;;;;;10.57;8.97;;;;;;;;;;5035250;28;20792;-68
2021/12/09 03:47:10;;;;;;;9.47;8.47;;;;;;;;;;5045312;28;20426;-68
2021/12/09 03:49:36;;;;;;;11.90;9.73;;;;;;;;;;5053744;28;20911;-68
2021/12/09 03:52:03;;;;;;;14.13;9.40;;;;;;;;;;5054451;28;20956;-68
2021/12/09 03:54:29;;;;;;;11.10;8.93;;;;;;;;;;5055096;28;20429;-68
2021/12/09 03:56:56;;;;;;;10.93;9.73;;;;;;;;;;5054949;28;20895;-68
2021/12/09 03:59:22;;;;;;;13.90;9.47;;;;;;;;;;5054796;28;20430;-68
2021/12/09 04:01:48;;;;;;;12.00;9.93;;;;;;;;;;5054803;28;20774;-68
2021/12/09 04:04:15;;;;;;;11.23;9.10;;;;;;;;;;5055003;28;20870;-68
2021/12/09 04:06:41;;;;;;;12.30;9.50;;;;;;;;;;5054776;28;20406;-68
2021/12/09 04:09:08;;;;;;;13.10;10.53;;;;;;;;;;5054834;28;20537;-68
2021/12/09 04:11:35;;;;;;;12.37;9.83;;;;;;;;;;5054776;28;20433;-67
2021/12/09 04:14:01;;;;;;;12.83;9.40;;;;;;;;;;5054798;28;20447;-67
2021/12/09 04:16:29;;;;;;;11.10;8.50;;;;;;;;;;5054551;28;20398;-67
2021/12/09 04:18:55;;;;;;;12.20;9.37;;;;;;;;;;5054913;28;20406;-67
2021/12/09 04:21:21;;;;;;;12.63;9.33;;;;;;;;;;5054823;28;20484;-67
2021/12/09 04:23:47;;;;;;;12.63;9.77;;;;;;;;;;5054820;28;20422;-67
2021/12/09 04:26:13;;;;;;;11.40;9.10;;;;;;;;;;5054843;28;20394;-67
2021/12/09 04:28:40;;;;;;;12.60;9.30;;;;;;;;;;5054799;28;20905;-67
2021/12/09 04:31:06;;;;;;;13.40;9.93;;;;;;;;;;5046919;28;20442;-66
2021/12/09 04:33:33;;;;;;;12.50;9.60;;;;;;;;;;5033954;28;20486;-66
2021/12/09 04:35:59;;;;;;;14.10;10.10;;;;;;;;;;5053751;28;20942;-68
2021/12/09 04:38:25;;;;;;;14.23;10.40;;;;;;;;;;5054358;28;20406;-68
2021/12/09 04:40:51;;;;;;;12.23;9.90;;;;;;;;;;5054177;28;20827;-68
2021/12/09 04:43:17;;;;;;;12.47;9.10;;;;;;;;;;5054102;28;20429;-67
2021/12/09 04:45:44;;;;;;;14.33;10.57;;;;;;;;;;5053762;28;20410;-68
2021/12/09 04:48:10;;;;;;;13.23;9.27;;;;;;;;;;5052392;28;20417;-66
2021/12/09 04:50:37;;;;;;;13.83;10.33;;;;;;;;;;5053566;28;20932;-67
2021/12/09 04:53:03;;;;;;;13.87;10.27;;;;;;;;;;5053605;28;20508;-68
2021/12/09 04:55:30;;;;;;;12.07;9.57;;;;;;;;;;5053437;28;20821;-67
2021/12/09 04:57:56;;;;;;;13.60;10.23;;;;;;;;;;5053687;28;20460;-68
2021/12/09 05:00:23;;;;;;;19.10;10.67;;;;;;;;;;5053890;28;20954;-68
2021/12/09 05:03:05;;;;;;;12.40;9.40;;;;;;;;;;5053926;28;20410;-68
2021/12/09 05:05:40;;;;;;;11.50;8.70;;;;;;;;;;5052408;28;20413;-67
2021/12/09 05:08:07;;;;;;;13.10;9.43;;;;;;;;;;5053615;28;20915;-68
2021/12/09 05:10:37;;;;;;;13.00;10.10;;;;;;;;;;5053448;28;20816;-68
2021/12/09 05:13:04;;;;;;;13.27;9.77;;;;;;;;;;5053352;28;20441;-68
2021/12/09 05:15:31;;;;;;;11.80;8.73;;;;;;;;;;5053636;28;20398;-68
2021/12/09 05:17:57;;;;;;;13.17;9.97;;;;;;;;;;5053651;28;20484;-68
2021/12/09 05:20:23;;;;;;;12.43;9.10;;;;;;;;;;5053404;28;20813;-68
2021/12/09 05:22:49;;;;;;;12.70;10.07;;;;;;;;;;5053353;28;20492;-68
2021/12/09 05:25:15;;;;;;;15.23;9.80;;;;;;;;;;5053316;28;20441;-68
2021/12/09 05:27:41;;;;;;;11.20;9.13;;;;;;;;;;5053175;28;20417;-68
2021/12/09 05:30:12;;;;;;;13.20;9.20;;;;;;;;;;5053480;28;20983;-68
2021/12/09 05:32:38;;;;;;;11.13;7.93;;;;;;;;;;5053294;28;20838;-68
2021/12/09 05:35:05;;;;;;;14.17;8.67;;;;;;;;;;5053343;28;20431;-68
2021/12/09 05:37:31;;;;;;;12.83;8.27;;;;;;;;;;5053099;28;20806;-68
2021/12/09 05:39:57;;;;;;;12.03;8.50;;;;;;;;;;5053054;28;20418;-68
2021/12/09 05:42:24;;;;;;;12.67;9.87;;;;;;;;;;5051651;28;20463;-68
2021/12/09 05:44:50;;;;;;;12.13;8.90;;;;;;;;;;5052850;28;20923;-68
2021/12/09 05:47:16;;;;;;;11.37;8.00;;;;;;;;;;5053019;28;20413;-68
2021/12/09 05:49:44;;;;;;;12.67;8.50;;;;;;;;;;5052839;28;20425;-68
2021/12/09 05:52:10;;;;;;;11.57;8.53;;;;;;;;;;5053160;28;20807;-68
2021/12/09 05:54:37;;;;;;;12.70;8.00;;;;;;;;;;5052917;28;20449;-68
2021/12/09 05:57:03;;;;;;;11.77;8.47;;;;;;;;;;5053118;28;20827;-68
2021/12/09 05:59:29;;;;;;;11.53;8.57;;;;;;;;;;5052762;28;20405;-68
2021/12/09 06:01:55;;;;;;;9.67;8.03;;;;;;;;;;5052722;28;20409;-68
2021/12/09 06:04:22;;;;;;;11.03;8.07;;;;;;;;;;5053005;28;20415;-68
2021/12/09 06:06:48;;;;;;;10.27;7.70;;;;;;;;;;5055054;28;20896;-68
2021/12/09 06:09:15;;;;;;;10.30;7.30;;;;;;;;;;5056906;28;20527;-68
2021/12/09 06:11:43;;;;;;;10.73;7.63;;;;;;;;;;5056792;28;20488;-68
2021/12/09 06:14:09;;;;;;;9.53;6.90;;;;;;;;;;5055729;28;20748;-68
2021/12/09 06:16:36;;;;;;;12.23;7.77;;;;;;;;;;5056512;28;20410;-71
2021/12/09 06:19:02;;;;;;;8.83;6.77;;;;;;;;;;5057128;28;20411;-67
2021/12/09 06:21:29;;;;;;;17.03;6.90;;;;;;;;;;5056769;28;20428;-67
2021/12/09 06:23:55;;;;;;;9.30;6.70;;;;;;;;;;5055962;28;20404;-66
2021/12/09 06:26:21;;;;;;;8.77;6.80;;;;;;;;;;5055450;28;20457;-73
2021/12/09 06:28:48;;;;;;;10.23;7.30;;;;;;;;;;5056150;28;20417;-65
2021/12/09 06:31:14;;;;;;;11.10;7.57;;;;;;;;;;5055722;28;20469;-66
2021/12/09 06:33:40;;;;;;;12.10;7.83;;;;;;;;;;5055947;28;20456;-67
2021/12/09 06:36:06;;;;;;;10.03;7.03;;;;;;;;;;5054914;28;20429;-65
2021/12/09 06:38:32;;;;;;;9.87;7.63;;;;;;;;;;5056437;28;20471;-66
2021/12/09 06:40:58;;;;;;;9.30;6.93;;;;;;;;;;5055788;28;20424;-68
2021/12/09 06:43:25;;;;;;;8.87;7.00;;;;;;;;;;5056617;28;20273;-69
2021/12/09 06:45:53;;;;;;;8.20;5.53;;;;;;;;;;5055215;28;20503;-67
2021/12/09 06:48:19;;;;;;;9.50;6.63;;;;;;;;;;5051812;28;20567;-69
2021/12/09 06:50:45;;;;;;;9.17;6.60;;;;;;;;;;5056352;28;20915;-71
2021/12/09 06:53:13;;;;;;;7.80;6.37;;;;;;;;;;5056352;28;20456;-68
2021/12/09 06:55:39;;;;;;;8.93;6.30;;;;;;;;;;5056400;28;20488;-69
2021/12/09 06:58:06;;;;;;;11.77;5.60;;;;;;;;;;5056166;28;20401;-67
2021/12/09 07:00:32;;;;;;;8.27;5.40;;;;;;;;;;5044645;28;20423;-67
2021/12/09 07:02:59;;;;;;;9.77;5.90;;;;;;;;;;5055457;28;20425;-71
2021/12/09 07:05:29;;;;;;;8.03;5.33;;;;;;;;;;5056299;28;20743;-70
2021/12/09 07:07:55;;;;;;;8.57;5.53;;;;;;;;;;5056252;28;20471;-68
2021/12/09 07:10:22;;;;;;;9.33;5.20;;;;;;;;;;5056144;28;20441;-69
2021/12/09 07:12:48;;;;;;;8.37;5.60;;;;;;;;;;5055585;28;20449;-67
2021/12/09 07:15:15;;;;;;;9.70;5.33;;;;;;;;;;5057230;28;20444;-66
2021/12/09 07:17:41;;;;;;;7.97;5.10;;;;;;;;;;5053058;28;20416;-70
2021/12/09 07:20:09;;;;;;;7.63;4.70;;;;;;;;;;5055096;28;20199;-68
2021/12/09 07:22:35;;;;;;;6.63;4.93;;;;;;;;;;5054705;28;20413;-68
2021/12/09 07:25:02;;;;;;;6.20;4.57;;;;;;;;;;5055474;28;20536;-70
2021/12/09 07:27:28;;;;;;;6.67;5.40;;;;;;;;;;5055193;28;20409;-69
2021/12/09 07:29:54;;;;;;;7.40;5.60;;;;;;;;;;5055195;28;20426;-69
2021/12/09 07:32:20;;;;;;;7.33;4.93;;;;;;;;;;5055786;28;20434;-70
2021/12/09 07:34:47;;;;;;;7.50;4.00;;;;;;;;;;5055226;28;20984;-69
2021/12/09 07:37:13;;;;;;;6.87;5.67;;;;;;;;;;5055561;28;20489;-68
2021/12/09 07:39:39;;;;;;;7.53;5.47;;;;;;;;;;5055129;28;20568;-68
2021/12/09 07:42:05;;;;;;;7.17;5.27;;;;;;;;;;5054810;28;20936;-67
2021/12/09 07:44:31;;;;;;;7.07;5.60;;;;;;;;;;5055466;28;20418;-69
2021/12/09 07:46:58;;;;;;;7.20;5.33;;;;;;;;;;5055043;28;20784;-68
2021/12/09 07:49:24;;;;;;;7.57;5.20;;;;;;;;;;5054835;28;20491;-68
2021/12/09 07:51:50;;;;;;;12.33;6.10;;;;;;;;;;5055205;28;20481;-67
2021/12/09 07:54:16;;;;;;;7.30;5.70;;;;;;;;;;5054739;28;20427;-67
2021/12/09 07:56:43;;;;;;;6.10;5.50;;;;;;;;;;5054106;28;20896;-68
2021/12/09 07:59:11;;;;;;;6.77;6.10;;;;;;;;;;5054681;28;20413;-68
2021/12/09 08:01:37;;;;;;;11.43;6.60;;;;;;;;;;5054186;28;20452;-68
2021/12/09 08:04:04;;;;;;;9.70;5.70;;;;;;;;;;5048265;28;20444;-69
2021/12/09 08:06:30;;;;;;;9.23;6.40;;;;;;;;;;5037256;28;20722;-74
2021/12/09 08:08:56;;;;;;;9.90;5.80;;;;;;;;;;5054392;28;20418;-69
2021/12/09 08:11:22;;;;;;;8.13;5.93;;;;;;;;;;5054548;28;20425;-69
2021/12/09 08:13:49;;;;;;;9.60;6.03;;;;;;;;;;5038513;28;20459;-69
2021/12/09 08:16:16;;;;;;;8.07;6.00;;;;;;;;;;5053708;28;20442;-70
2021/12/09 08:18:56;;;;;;;6.75;5.32;;;;;;;;;;5052845;28;20361;-65
2021/12/09 08:21:26;;;;;;;7.33;4.87;;;;;;;;;;5054267;28;20183;-65
2021/12/09 08:23:53;;;;;;;8.93;5.90;;;;;;;;;;5051888;28;20464;-66
2021/12/09 08:26:20;;;;;;;7.23;5.53;;;;;;;;;;5050593;28;20522;-66
2021/12/09 08:28:46;;;;;;;6.97;5.40;;;;;;;;;;5042270;28;20410;-69
2021/12/09 08:31:12;;;;;;;8.43;5.07;;;;;;;;;;5044075;28;20438;-71
2021/12/09 08:33:38;;;;;;;8.87;5.20;;;;;;;;;;5051824;28;20457;-68
2021/12/09 08:36:04;;;;;;;6.10;4.90;;;;;;;;;;5053420;28;20507;-68
2021/12/09 08:38:31;;;;;;;6.97;5.73;;;;;;;;;;5052986;28;20504;-70
2021/12/09 08:40:57;;;;;;;8.60;6.20;;;;;;;;;;5052899;28;20517;-69
2021/12/09 08:43:24;;;;;;;6.00;4.60;;;;;;;;;;5043612;28;20482;-67
2021/12/09 08:45:50;;;;;;;5.83;4.90;;;;;;;;;;5043661;28;20426;-70
2021/12/09 08:48:18;;;;;;;8.73;5.47;;;;;;;;;;5047168;28;20475;-70
2021/12/09 08:50:44;;;;;;;7.70;5.83;;;;;;;;;;5046396;28;20483;-71
2021/12/09 08:53:14;;;;;;;10.10;6.60;;;;;;;;;;5046002;28;20469;-71
2021/12/09 08:55:41;;;;;;;6.97;6.13;;;;;;;;;;5038496;28;20804;-70
2021/12/09 08:58:08;;;;;;;6.90;4.97;;;;;;;;;;5045471;28;20418;-70
2021/12/09 09:00:35;;;;;;;7.53;5.43;;;;;;;;;;5049156;28;20433;-71
2021/12/09 09:03:01;;;;;;;7.70;5.53;;;;;;;;;;5051886;28;20464;-68
2021/12/09 09:05:28;;;;;;;8.77;5.70;;;;;;;;;;5050060;28;20924;-68
2021/12/09 09:07:55;;;;;;;6.87;5.43;;;;;;;;;;5050824;28;20923;-70
2021/12/09 09:10:23;;;;;;;10.90;5.80;;;;;;;;;;5051863;28;20453;-70
2021/12/09 09:12:49;;;;;;;6.47;5.47;;;;;;;;;;5050034;28;20822;-70
2021/12/09 09:15:17;;;;;;;7.87;5.67;;;;;;;;;;5033220;28;20859;-75
2021/12/09 09:17:43;;;;;;;6.00;4.73;;;;;;;;;;5048938;28;20535;-69
2021/12/09 09:20:10;;;;;;;9.20;6.43;;;;;;;;;;5047228;28;20441;-69
2021/12/09 09:22:37;;;;;;;7.10;5.87;;;;;;;;;;5050870;28;20476;-69
2021/12/09 09:25:04;;;;;;;7.13;5.00;;;;;;;;;;5050820;28;20422;-70
2021/12/09 09:27:30;;;;;;;7.40;5.83;;;;;;;;;;5048945;28;20430;-70
2021/12/09 09:29:57;;;;;;;7.10;5.93;;;;;;;;;;5041349;28;20450;-69
2021/12/09 09:32:23;;;;;;;8.47;6.67;;;;;;;;;;5051308;28;20464;-69
2021/12/09 09:34:49;;;;;;;7.80;5.77;;;;;;;;;;5051529;28;21953;-69
2021/12/09 09:37:16;;;;;;;8.80;6.10;;;;;;;;;;5039487;28;20434;-68
2021/12/09 09:39:44;;;;;;;7.30;6.00;;;;;;;;;;5047776;28;20524;-68
2021/12/09 09:44:48;;;;;;;9.40;6.30;;;;;;;;;;5050572;28;20981;-71
2021/12/09 09:47:16;;;;;;;10.03;8.03;;;;;;;;;;5052990;28;20416;-70
2021/12/09 09:49:42;;;;;;;8.67;7.13;;;;;;;;;;5054747;28;20520;-70
2021/12/09 09:52:10;;;;;;;10.03;7.77;;;;;;;;;;5055996;28;20536;-70
2021/12/09 09:54:37;;;;;;;10.73;8.27;;;;;;;;;;5053436;28;20480;-69
2021/12/09 09:57:03;;;;;;;10.73;8.07;;;;;;;;;;5052058;28;20780;-68
2021/12/09 09:59:29;;;;;;;13.13;8.30;;;;;;;;;;5051078;28;20421;-70
2021/12/09 10:01:55;;;;;;;11.83;8.50;;;;;;;;;;5051424;28;20429;-70
2021/12/09 10:05:06;;;;;;;12.20;8.93;;;;;;;;;;5048744;28;20454;-69
2021/12/09 10:07:13;;;;;;;13.53;9.13;;;;;;;;;;5029215;28;22186;-68
2021/12/09 10:09:40;;;;;;;12.60;9.40;;;;;;;;;;5051470;28;20477;-69
2021/12/09 10:12:06;;;;;;;13.53;9.80;;;;;;;;;;5044945;28;20504;-71
2021/12/09 10:14:33;;;;;;;12.27;10.20;;;;;;;;;;5051338;28;20429;-70
2021/12/09 10:17:05;;;;;;;11.30;9.40;;;;;;;;;;5053061;28;20547;-68
2021/12/09 10:19:32;;;;;;;13.30;10.07;;;;;;;;;;5051062;28;20488;-67
2021/12/09 10:22:12;;;;;;;11.23;9.47;;;;;;;;;;5051388;28;20430;-69
2021/12/09 10:24:39;;;;;;;11.13;8.90;;;;;;;;;;5042403;28;20472;-71
2021/12/09 10:27:06;;;;;;;12.90;10.03;;;;;;;;;;5050891;28;20540;-69
2021/12/09 10:29:37;;;;;;;15.23;9.00;;;;;;;;;;5050809;28;20441;-71
2021/12/09 10:32:07;;;;;;;12.90;9.70;;;;;;;;;;5049605;28;20461;-69
2021/12/09 10:37:10;;;;;;;15.03;10.43;;;;;;;;;;5051762;28;20449;-66
2021/12/09 10:39:39;;;;;;;14.67;10.37;;;;;;;;;;5049392;28;20983;-66
2021/12/09 10:42:24;;;;;;;12.80;9.93;;;;;;;;;;5049411;28;20950;-65
2021/12/09 10:45:05;;;;;;;15.50;10.17;;;;;;;;;;5047203;28;20456;-66
2021/12/09 10:50:17;;;;;;;14.17;9.57;;;;;;;;;;5052412;28;20745;-69
2021/12/09 10:52:48;;;;;;;13.50;9.30;;;;;;;;;;5053479;28;20449;-70
2021/12/09 10:55:17;;;;;;;13.40;9.20;;;;;;;;;;5055022;28;20512;-69
2021/12/09 10:57:44;;;;;;;16.43;9.00;;;;;;;;;;5054096;28;20442;-70
2021/12/09 11:00:18;;;;;;;15.13;10.60;;;;;;;;;;5055484;28;20442;-70
2021/12/09 11:02:56;;;;;;;14.13;10.33;;;;;;;;;;5054099;28;20413;-68
2021/12/09 11:05:23;;;;;;;16.83;9.40;;;;;;;;;;5054043;28;20503;-69
2021/12/09 11:07:49;;;;;;;11.83;8.60;;;;;;;;;;5053218;28;20422;-69
2021/12/09 11:10:26;;;;;;;14.80;8.50;;;;;;;;;;5054604;28;20453;-69
2021/12/09 11:12:53;;;;;;;11.80;7.80;;;;;;;;;;5054801;28;20453;-68
2021/12/09 11:15:21;;;;;;;13.67;8.10;;;;;;;;;;5052379;28;20436;-69
2021/12/09 11:17:50;;;;;;;13.40;8.20;;;;;;;;;;5052875;28;20915;-68
2021/12/09 11:20:36;;;;;;;13.33;9.63;;;;;;;;;;5055128;28;20441;-67
2021/12/09 11:23:21;;;;;;;12.40;8.17;;;;;;;;;;5054874;28;20916;-67
2021/12/09 11:25:47;;;;;;;14.13;8.10;;;;;;;;;;5055396;28;20438;-67
2021/12/09 11:28:13;;;;;;;12.10;8.53;;;;;;;;;;5054848;28;20509;-67
2021/12/09 11:31:03;;;;;;;11.00;7.57;;;;;;;;;;5052130;28;20484;-67
2021/12/09 11:33:36;;;;;;;11.23;8.37;;;;;;;;;;5052928;28;21041;-69
2021/12/09 11:36:02;;;;;;;12.07;7.20;;;;;;;;;;5052540;28;20484;-70
2021/12/09 11:38:55;;;;;;;12.37;8.37;;;;;;;;;;5053443;28;20418;-69
2021/12/09 11:41:37;;;;;;;11.53;7.40;;;;;;;;;;5050903;28;20517;-70
2021/12/09 11:44:03;;;;;;;9.50;6.77;;;;;;;;;;5040531;28;20500;-69
2021/12/09 11:46:29;;;;;;;12.87;7.03;;;;;;;;;;5049414;28;21282;-66
2021/12/09 11:48:55;;;;;;;13.10;8.23;;;;;;;;;;5042636;28;20436;-66
2021/12/09 11:51:24;;;;;;;9.73;6.70;;;;;;;;;;5040194;28;20473;-68
2021/12/09 11:53:55;;;;;;;9.90;6.50;;;;;;;;;;5048035;28;20521;-66
2021/12/09 12:12:52;;;;;;;14.70;7.60;;;;;;;;;;5052414;28;20445;-71
2021/12/09 12:21:18;;;;;;;12.43;7.17;;;;;;;;;;5027329;28;20457;-69
2021/12/09 12:26:52;;;;;;;15.53;7.40;;;;;;;;;;5052197;28;20556;-68
2021/12/09 12:40:33;;;;;;;11.70;8.17;;;;;;;;;;5028790;28;20483;-70
2021/12/09 12:43:11;;;;;;;16.87;8.10;;;;;;;;;;5053803;28;20425;-71
2021/12/09 12:51:06;;;;;;;9.57;7.37;;;;;;;;;;5054767;28;20491;-71
2021/12/09 12:53:34;;;;;;;9.03;6.67;;;;;;;;;;5048983;28;20540;-72
2021/12/09 12:56:09;;;;;;;11.27;7.60;;;;;;;;;;5052359;28;20402;-73
2021/12/09 12:58:35;;;;;;;12.17;7.90;;;;;;;;;;5049764;28;20499;-69
2021/12/09 13:01:17;;;;;;;14.30;7.13;;;;;;;;;;5052135;28;20800;-70
2021/12/09 13:03:49;;;;;;;16.73;7.50;;;;;;;;;;5050287;28;20421;-70
2021/12/09 13:06:37;;;;;;;10.90;7.90;;;;;;;;;;5050572;28;20461;-69
2021/12/09 13:09:24;;;;;;;13.97;8.20;;;;;;;;;;5047458;28;20447;-69
2021/12/09 13:11:58;;;;;;;10.23;7.90;;;;;;;;;;5046298;28;20968;-72
2021/12/09 13:14:29;;;;;;;11.07;8.33;;;;;;;;;;5051186;28;20417;-71
2021/12/09 13:17:05;;;;;;;13.67;7.87;;;;;;;;;;5051380;28;20493;-72
2021/12/09 13:19:40;;;;;;;12.43;7.77;;;;;;;;;;5050169;28;20437;-72
2021/12/09 13:22:12;;;;;;;12.63;7.63;;;;;;;;;;5043694;28;20819;-71
2021/12/09 13:27:42;;;;;;;9.53;6.43;;;;;;;;;;5050107;28;20398;-69
2021/12/09 13:30:32;;;;;;;8.73;7.23;;;;;;;;;;5049819;28;20821;-67
2021/12/09 13:35:59;;;;;;;12.27;7.37;;;;;;;;;;5050703;28;20432;-70
2021/12/09 13:47:51;;;;;;;9.40;7.10;;;;;;;;;;5047858;28;20767;-70
2021/12/09 13:49:47;;;;;;;10.80;7.07;;;;;;;;;;5037291;28;20405;-69
2021/12/09 13:55:01;;;;;;;12.30;5.80;;;;;;;;;;5050737;28;20513;-67
2021/12/09 13:57:41;;;;;;;10.43;6.10;;;;;;;;;;5050815;28;20544;-70
2021/12/09 14:00:09;;;;;;;8.10;5.50;;;;;;;;;;5049549;28;20441;-69
2021/12/09 14:02:35;;;;;;;8.03;6.20;;;;;;;;;;5053271;28;20425;-68
2021/12/09 14:05:02;;;;;;;18.30;5.70;;;;;;;;;;5051381;28;20406;-69
2021/12/09 14:07:31;;;;;;;12.07;6.53;;;;;;;;;;5050360;28;20421;-69
2021/12/09 14:09:59;;;;;;;9.43;6.40;;;;;;;;;;5049971;28;20462;-68
2021/12/09 14:12:29;;;;;;;7.50;6.47;;;;;;;;;;5049638;28;20457;-69
2021/12/09 14:15:18;;;;;;;7.20;5.40;;;;;;;;;;5050139;28;20505;-68
2021/12/09 14:17:45;;;;;;;8.73;5.60;;;;;;;;;;5051948;28;20881;-71
2021/12/09 14:20:19;;;;;;;9.00;5.80;;;;;;;;;;5052170;28;20440;-71
2021/12/09 14:22:48;;;;;;;10.50;6.43;;;;;;;;;;5051510;28;20413;-69
2021/12/09 14:25:25;;;;;;;12.67;6.43;;;;;;;;;;5051239;28;20457;-70
2021/12/09 14:27:52;;;;;;;10.20;6.50;;;;;;;;;;5051806;28;20788;-65
2021/12/09 14:30:21;;;;;;;9.50;6.80;;;;;;;;;;5049925;28;20445;-70
2021/12/09 14:32:48;;;;;;;7.37;5.73;;;;;;;;;;5055051;28;20479;-70
2021/12/09 14:35:30;;;;;;;9.20;6.40;;;;;;;;;;5056069;28;20418;-68
2021/12/09 14:37:57;;;;;;;8.60;5.50;;;;;;;;;;5035366;28;20413;-65
2021/12/09 14:40:27;;;;;;;10.50;6.80;;;;;;;;;;5048166;28;20468;-66
2021/12/09 14:42:56;;;;;;;7.47;5.60;;;;;;;;;;5055259;28;20422;-65
2021/12/09 14:45:22;;;;;;;8.53;5.90;;;;;;;;;;5054680;28;20422;-65
2021/12/09 14:48:00;;;;;;;9.07;6.87;;;;;;;;;;5054721;28;20429;-64
2021/12/09 14:50:32;;;;;;;10.13;6.70;;;;;;;;;;5054973;28;20441;-65
2021/12/09 14:52:58;;;;;;;11.07;5.83;;;;;;;;;;5053547;28;20488;-69
2021/12/09 14:55:26;;;;;;;10.27;6.10;;;;;;;;;;5053746;28;20421;-69
2021/12/09 14:58:03;;;;;;;11.90;6.30;;;;;;;;;;5054900;28;20421;-70
2021/12/09 15:00:31;;;;;;;7.83;6.20;;;;;;;;;;5053625;28;20430;-72
2021/12/09 15:02:57;;;;;;;7.20;5.27;;;;;;;;;;5053501;28;20429;-69
2021/12/09 15:05:23;;;;;;;8.23;6.07;;;;;;;;;;5050520;28;20524;-70
2021/12/09 15:08:02;;;;;;;7.40;5.50;;;;;;;;;;5053790;28;20451;-71
2021/12/09 15:10:31;;;;;;;9.47;5.93;;;;;;;;;;5053908;28;20987;-72
2021/12/09 15:12:59;;;;;;;8.50;5.90;;;;;;;;;;5054987;28;20450;-72
2021/12/09 15:15:26;;;;;;;8.60;6.00;;;;;;;;;;5053341;28;20425;-70
2021/12/09 15:17:57;;;;;;;12.40;6.13;;;;;;;;;;5052542;28;20420;-67
2021/12/09 15:20:35;;;;;;;8.77;5.80;;;;;;;;;;5053074;28;20211;-68
2021/12/09 15:23:15;;;;;;;10.47;6.83;;;;;;;;;;5040651;28;20425;-65
2021/12/09 15:25:42;;;;;;;9.97;6.17;;;;;;;;;;5054299;28;20438;-69
2021/12/09 15:28:12;;;;;;;8.47;5.73;;;;;;;;;;5053401;28;20422;-68
2021/12/09 15:30:41;;;;;;;15.60;6.40;;;;;;;;;;5043941;28;20453;-69
2021/12/09 15:33:07;;;;;;;11.07;6.97;;;;;;;;;;5048193;28;20964;-68
2021/12/09 15:35:34;;;;;;;7.00;5.20;;;;;;;;;;5052568;28;20597;-65
2021/12/09 15:38:00;;;;;;;9.15;5.50;;;;;;;;;;5049049;28;20882;-69
2021/12/09 15:40:27;;;;;;;7.83;6.13;;;;;;;;;;5051572;28;20191;-71
2021/12/09 15:42:53;;;;;;;8.60;6.30;;;;;;;;;;5050242;28;20433;-71
2021/12/09 15:45:21;;;;;;;8.43;6.50;;;;;;;;;;5052279;28;20425;-70
2021/12/09 15:47:47;;;;;;;8.40;6.80;;;;;;;;;;5048840;28;20433;-67